sensor_id;sensor_type;location;lat;lon;timestamp;P1;durP1;ratioP1;P2;durP2;ratioP2
61644;SDS011;47553;52.428;13.382;2022-11-27T10:59:41;15.38;;;6.93;;
61644;SDS011;47553;52.428;13.382;2022-11-27T11:01:47;16.08;;;6.35;;
61644;SDS011;47553;52.428;13.382;2022-11-27T11:04:03;17.08;;;7.63;;
61644;SDS011;47553;52.428;13.382;2022-11-27T11:06:25;19.33;;;8.15;;
61644;SDS011;47553;52.428;13.382;2022-11-27T11:08:27;16.25;;;7.40;;
61644;SDS011;47553;52.428;13.382;2022-11-27T11:10:30;16.95;;;7.85;;
61644;SDS011;47553;52.428;13.382;2022-11-27T11:12:33;16.10;;;7.20;;
61644;SDS011;47553;52.428;13.382;2022-11-27T11:16:40;14.38;;;5.95;;
61644;SDS011;47553;52.428;13.382;2022-11-27T11:18:43;18.05;;;7.95;;
61644;SDS011;47553;52.428;13.382;2022-11-27T11:20:46;18.45;;;7.07;;
61644;SDS011;47553;52.428;13.382;2022-11-27T11:22:49;13.70;;;5.82;;
61644;SDS011;47553;52.428;13.382;2022-11-27T11:24:51;14.65;;;6.00;;
61644;SDS011;47553;52.428;13.382;2022-11-27T11:26:54;17.13;;;7.15;;
61644;SDS011;47553;52.428;13.382;2022-11-27T11:28:58;17.42;;;7.35;;
61644;SDS011;47553;52.428;13.382;2022-11-27T11:31:02;14.35;;;6.43;;
61644;SDS011;47553;52.428;13.382;2022-11-27T11:33:10;16.85;;;6.78;;
61644;SDS011;47553;52.428;13.382;2022-11-27T11:35:22;18.92;;;8.35;;
61644;SDS011;47553;52.428;13.382;2022-11-27T11:37:26;16.10;;;6.63;;
61644;SDS011;47553;52.428;13.382;2022-11-27T11:39:30;13.35;;;5.72;;
61644;SDS011;47553;52.428;13.382;2022-11-27T11:41:35;14.30;;;6.15;;
61644;SDS011;47553;52.428;13.382;2022-11-27T11:43:38;12.43;;;5.43;;
61644;SDS011;47553;52.428;13.382;2022-11-27T11:45:43;15.63;;;6.70;;
61644;SDS011;47553;52.428;13.382;2022-11-27T11:47:48;12.45;;;5.80;;
61644;SDS011;47553;52.428;13.382;2022-11-27T11:49:51;15.45;;;5.70;;
61644;SDS011;47553;52.428;13.382;2022-11-27T11:52:04;12.38;;;5.57;;
61644;SDS011;47553;52.428;13.382;2022-11-27T11:54:19;11.65;;;5.50;;
61644;SDS011;47553;52.428;13.382;2022-11-27T11:56:32;14.00;;;5.95;;
61644;SDS011;47553;52.428;13.382;2022-11-27T11:58:42;11.82;;;5.75;;
61644;SDS011;47553;52.428;13.382;2022-11-27T12:00:53;13.80;;;5.70;;
61644;SDS011;47553;52.428;13.382;2022-11-27T12:03:28;11.95;;;5.20;;
61644;SDS011;47553;52.428;13.382;2022-11-27T12:05:56;11.95;;;5.05;;
61644;SDS011;47553;52.428;13.382;2022-11-27T12:08:13;12.77;;;5.90;;
61644;SDS011;47553;52.428;13.382;2022-11-27T12:10:39;14.93;;;5.70;;
61644;SDS011;47553;52.428;13.382;2022-11-27T12:12:56;12.13;;;5.75;;
61644;SDS011;47553;52.428;13.382;2022-11-27T12:15:05;13.07;;;4.85;;
61644;SDS011;47553;52.428;13.382;2022-11-27T12:17:20;11.13;;;5.20;;
61644;SDS011;47553;52.428;13.382;2022-11-27T12:19:45;13.90;;;5.07;;
61644;SDS011;47553;52.428;13.382;2022-11-27T12:22:02;13.48;;;5.72;;
61644;SDS011;47553;52.428;13.382;2022-11-27T12:24:18;13.65;;;5.18;;
61644;SDS011;47553;52.428;13.382;2022-11-27T12:26:37;11.23;;;5.30;;
61644;SDS011;47553;52.428;13.382;2022-11-27T12:28:56;11.70;;;5.20;;
61644;SDS011;47553;52.428;13.382;2022-11-27T12:31:10;14.10;;;5.90;;
61644;SDS011;47553;52.428;13.382;2022-11-27T12:33:24;11.63;;;5.13;;
61644;SDS011;47553;52.428;13.382;2022-11-27T12:35:40;14.07;;;5.50;;
61644;SDS011;47553;52.428;13.382;2022-11-27T12:37:47;11.18;;;5.30;;
61644;SDS011;47553;52.428;13.382;2022-11-27T12:40:03;14.00;;;5.53;;
61644;SDS011;47553;52.428;13.382;2022-11-27T12:42:18;17.33;;;6.20;;
61644;SDS011;47553;52.428;13.382;2022-11-27T12:44:28;17.13;;;7.30;;
61644;SDS011;47553;52.428;13.382;2022-11-27T12:46:38;18.70;;;7.55;;
61644;SDS011;47553;52.428;13.382;2022-11-27T12:48:50;12.48;;;5.60;;
61644;SDS011;47553;52.428;13.382;2022-11-27T12:50:55;12.98;;;5.47;;
61644;SDS011;47553;52.428;13.382;2022-11-27T12:53:05;11.52;;;5.60;;
61644;SDS011;47553;52.428;13.382;2022-11-27T12:55:15;12.65;;;5.20;;
61644;SDS011;47553;52.428;13.382;2022-11-27T12:57:21;14.80;;;5.80;;
61644;SDS011;47553;52.428;13.382;2022-11-27T12:59:27;13.70;;;6.03;;
61644;SDS011;47553;52.428;13.382;2022-11-27T13:03:43;11.02;;;4.90;;
61644;SDS011;47553;52.428;13.382;2022-11-27T13:05:55;10.80;;;4.95;;
61644;SDS011;47553;52.428;13.382;2022-11-27T13:08:00;14.38;;;5.57;;
61644;SDS011;47553;52.428;13.382;2022-11-27T13:10:10;13.82;;;5.47;;
61644;SDS011;47553;52.428;13.382;2022-11-27T13:12:19;12.15;;;5.30;;
61644;SDS011;47553;52.428;13.382;2022-11-27T13:14:24;15.40;;;5.68;;
61644;SDS011;47553;52.428;13.382;2022-11-27T13:16:29;14.10;;;5.57;;
61644;SDS011;47553;52.428;13.382;2022-11-27T13:18:35;14.68;;;6.68;;
61644;SDS011;47553;52.428;13.382;2022-11-27T13:20:40;14.73;;;5.78;;
61644;SDS011;47553;52.428;13.382;2022-11-27T13:22:42;14.73;;;6.03;;
61644;SDS011;47553;52.428;13.382;2022-11-27T13:24:45;14.23;;;5.72;;
61644;SDS011;47553;52.428;13.382;2022-11-27T13:26:48;12.93;;;5.82;;
61644;SDS011;47553;52.428;13.382;2022-11-27T13:28:56;13.00;;;5.75;;
61644;SDS011;47553;52.428;13.382;2022-11-27T13:31:01;13.85;;;5.43;;
61644;SDS011;47553;52.428;13.382;2022-11-27T13:33:05;13.63;;;5.35;;
61644;SDS011;47553;52.428;13.382;2022-11-27T13:37:24;14.50;;;5.13;;
61644;SDS011;47553;52.428;13.382;2022-11-27T13:39:29;13.32;;;5.15;;
61644;SDS011;47553;52.428;13.382;2022-11-27T13:41:36;14.68;;;5.63;;
61644;SDS011;47553;52.428;13.382;2022-11-27T13:43:40;13.40;;;5.38;;
61644;SDS011;47553;52.428;13.382;2022-11-27T13:45:44;11.23;;;5.22;;
61644;SDS011;47553;52.428;13.382;2022-11-27T13:47:45;17.83;;;5.13;;
61644;SDS011;47553;52.428;13.382;2022-11-27T13:49:56;21.65;;;5.80;;
61644;SDS011;47553;52.428;13.382;2022-11-27T13:52:04;14.32;;;5.10;;
61644;SDS011;47553;52.428;13.382;2022-11-27T13:54:10;14.23;;;4.82;;
61644;SDS011;47553;52.428;13.382;2022-11-27T13:56:13;12.80;;;5.32;;
61644;SDS011;47553;52.428;13.382;2022-11-27T14:00:32;16.05;;;6.63;;
61644;SDS011;47553;52.428;13.382;2022-11-27T14:02:39;14.80;;;6.00;;
61644;SDS011;47553;52.428;13.382;2022-11-27T14:04:46;14.52;;;5.28;;
61644;SDS011;47553;52.428;13.382;2022-11-27T14:06:56;19.00;;;6.00;;
61644;SDS011;47553;52.428;13.382;2022-11-27T14:09:01;26.02;;;7.53;;
61644;SDS011;47553;52.428;13.382;2022-11-27T14:11:05;11.40;;;4.57;;
61644;SDS011;47553;52.428;13.382;2022-11-27T14:13:09;12.75;;;4.50;;
61644;SDS011;47553;52.428;13.382;2022-11-27T14:17:23;14.93;;;6.05;;
61644;SDS011;47553;52.428;13.382;2022-11-27T14:19:33;10.10;;;4.85;;
61644;SDS011;47553;52.428;13.382;2022-11-27T14:21:40;10.25;;;4.82;;
61644;SDS011;47553;52.428;13.382;2022-11-27T14:23:47;15.80;;;5.32;;
61644;SDS011;47553;52.428;13.382;2022-11-27T14:25:59;16.23;;;5.50;;
61644;SDS011;47553;52.428;13.382;2022-11-27T14:28:02;10.52;;;4.38;;
61644;SDS011;47553;52.428;13.382;2022-11-27T14:30:19;9.90;;;4.45;;
61644;SDS011;47553;52.428;13.382;2022-11-27T14:32:32;11.93;;;4.93;;
61644;SDS011;47553;52.428;13.382;2022-11-27T14:34:35;13.43;;;5.05;;
61644;SDS011;47553;52.428;13.382;2022-11-27T14:36:37;13.05;;;5.07;;
61644;SDS011;47553;52.428;13.382;2022-11-27T14:40:40;12.95;;;5.28;;
61644;SDS011;47553;52.428;13.382;2022-11-27T14:44:43;17.60;;;7.15;;
61644;SDS011;47553;52.428;13.382;2022-11-27T14:48:48;10.52;;;4.57;;
61644;SDS011;47553;52.428;13.382;2022-11-27T14:50:52;14.38;;;5.50;;
61644;SDS011;47553;52.428;13.382;2022-11-27T14:52:55;10.13;;;4.40;;
61644;SDS011;47553;52.428;13.382;2022-11-27T14:54:58;14.02;;;4.95;;
61644;SDS011;47553;52.428;13.382;2022-11-27T14:57:01;12.57;;;4.53;;
61644;SDS011;47553;52.428;13.382;2022-11-27T14:59:04;13.10;;;5.07;;
61644;SDS011;47553;52.428;13.382;2022-11-27T15:01:06;18.30;;;6.15;;
61644;SDS011;47553;52.428;13.382;2022-11-27T15:03:22;16.70;;;6.10;;
61644;SDS011;47553;52.428;13.382;2022-11-27T15:05:26;11.25;;;4.60;;
61644;SDS011;47553;52.428;13.382;2022-11-27T15:07:29;11.77;;;4.60;;
61644;SDS011;47553;52.428;13.382;2022-11-27T15:09:35;11.98;;;4.68;;
61644;SDS011;47553;52.428;13.382;2022-11-27T15:11:37;11.18;;;4.45;;
61644;SDS011;47553;52.428;13.382;2022-11-27T15:13:56;10.98;;;4.55;;
61644;SDS011;47553;52.428;13.382;2022-11-27T15:16:01;8.35;;;4.00;;
61644;SDS011;47553;52.428;13.382;2022-11-27T15:18:06;10.23;;;4.50;;
61644;SDS011;47553;52.428;13.382;2022-11-27T15:20:12;11.15;;;4.40;;
61644;SDS011;47553;52.428;13.382;2022-11-27T15:22:16;13.48;;;4.35;;
61644;SDS011;47553;52.428;13.382;2022-11-27T15:24:21;10.40;;;4.80;;
61644;SDS011;47553;52.428;13.382;2022-11-27T15:26:33;13.25;;;4.68;;
61644;SDS011;47553;52.428;13.382;2022-11-27T15:28:36;13.60;;;5.18;;
61644;SDS011;47553;52.428;13.382;2022-11-27T15:30:42;15.20;;;4.93;;
61644;SDS011;47553;52.428;13.382;2022-11-27T15:32:45;11.73;;;4.65;;
61644;SDS011;47553;52.428;13.382;2022-11-27T15:34:47;10.35;;;4.90;;
61644;SDS011;47553;52.428;13.382;2022-11-27T15:36:52;11.98;;;4.38;;
61644;SDS011;47553;52.428;13.382;2022-11-27T15:39:02;11.02;;;4.97;;
61644;SDS011;47553;52.428;13.382;2022-11-27T15:41:20;12.70;;;4.22;;
61644;SDS011;47553;52.428;13.382;2022-11-27T15:43:24;8.30;;;4.22;;
61644;SDS011;47553;52.428;13.382;2022-11-27T15:45:26;9.27;;;4.43;;
61644;SDS011;47553;52.428;13.382;2022-11-27T15:47:29;9.05;;;4.00;;
61644;SDS011;47553;52.428;13.382;2022-11-27T15:49:34;13.40;;;4.55;;
61644;SDS011;47553;52.428;13.382;2022-11-27T15:51:35;12.77;;;4.38;;
61644;SDS011;47553;52.428;13.382;2022-11-27T15:53:38;10.85;;;4.32;;
61644;SDS011;47553;52.428;13.382;2022-11-27T15:55:40;9.40;;;4.07;;
61644;SDS011;47553;52.428;13.382;2022-11-27T15:57:41;9.43;;;4.85;;
61644;SDS011;47553;52.428;13.382;2022-11-27T15:59:43;12.27;;;4.95;;
61644;SDS011;47553;52.428;13.382;2022-11-27T16:01:45;10.57;;;4.93;;
61644;SDS011;47553;52.428;13.382;2022-11-27T16:03:47;13.73;;;5.38;;
61644;SDS011;47553;52.428;13.382;2022-11-27T16:05:48;11.55;;;4.50;;
61644;SDS011;47553;52.428;13.382;2022-11-27T16:07:50;14.55;;;5.78;;
61644;SDS011;47553;52.428;13.382;2022-11-27T16:09:57;13.90;;;5.38;;
61644;SDS011;47553;52.428;13.382;2022-11-27T16:11:58;12.93;;;5.38;;
61644;SDS011;47553;52.428;13.382;2022-11-27T16:14:00;10.50;;;5.15;;
61644;SDS011;47553;52.428;13.382;2022-11-27T16:16:02;12.30;;;5.55;;
61644;SDS011;47553;52.428;13.382;2022-11-27T16:18:04;14.25;;;5.82;;
61644;SDS011;47553;52.428;13.382;2022-11-27T16:20:06;14.65;;;6.05;;
61644;SDS011;47553;52.428;13.382;2022-11-27T16:22:08;11.30;;;5.78;;
61644;SDS011;47553;52.428;13.382;2022-11-27T16:26:14;13.77;;;5.95;;
61644;SDS011;47553;52.428;13.382;2022-11-27T16:28:15;13.00;;;5.43;;
61644;SDS011;47553;52.428;13.382;2022-11-27T16:30:17;14.73;;;5.20;;
61644;SDS011;47553;52.428;13.382;2022-11-27T16:34:20;16.42;;;5.63;;
61644;SDS011;47553;52.428;13.382;2022-11-27T16:36:21;14.18;;;5.38;;
61644;SDS011;47553;52.428;13.382;2022-11-27T16:38:24;12.40;;;5.30;;
61644;SDS011;47553;52.428;13.382;2022-11-27T16:40:26;11.93;;;5.80;;
61644;SDS011;47553;52.428;13.382;2022-11-27T16:42:29;13.52;;;5.72;;
61644;SDS011;47553;52.428;13.382;2022-11-27T16:44:30;12.23;;;5.20;;
61644;SDS011;47553;52.428;13.382;2022-11-27T16:46:32;15.18;;;5.45;;
61644;SDS011;47553;52.428;13.382;2022-11-27T16:48:34;12.18;;;5.70;;
61644;SDS011;47553;52.428;13.382;2022-11-27T16:50:36;14.98;;;5.07;;
61644;SDS011;47553;52.428;13.382;2022-11-27T16:52:38;14.50;;;5.13;;
61644;SDS011;47553;52.428;13.382;2022-11-27T16:54:39;13.05;;;5.38;;
61644;SDS011;47553;52.428;13.382;2022-11-27T16:56:42;12.02;;;5.40;;
61644;SDS011;47553;52.428;13.382;2022-11-27T16:58:45;12.13;;;5.88;;
61644;SDS011;47553;52.428;13.382;2022-11-27T17:00:47;14.38;;;5.28;;
61644;SDS011;47553;52.428;13.382;2022-11-27T17:02:49;11.75;;;5.47;;
61644;SDS011;47553;52.428;13.382;2022-11-27T17:06:52;11.43;;;5.05;;
61644;SDS011;47553;52.428;13.382;2022-11-27T17:10:55;13.40;;;6.28;;
61644;SDS011;47553;52.428;13.382;2022-11-27T17:12:57;12.57;;;5.80;;
61644;SDS011;47553;52.428;13.382;2022-11-27T17:15:00;15.27;;;5.95;;
61644;SDS011;47553;52.428;13.382;2022-11-27T17:17:01;15.43;;;5.95;;
61644;SDS011;47553;52.428;13.382;2022-11-27T17:19:03;11.45;;;5.65;;
61644;SDS011;47553;52.428;13.382;2022-11-27T17:21:06;14.05;;;5.40;;
61644;SDS011;47553;52.428;13.382;2022-11-27T17:23:08;12.73;;;5.80;;
61644;SDS011;47553;52.428;13.382;2022-11-27T17:25:10;12.18;;;5.47;;
61644;SDS011;47553;52.428;13.382;2022-11-27T17:27:11;14.10;;;6.15;;
61644;SDS011;47553;52.428;13.382;2022-11-27T17:29:13;13.05;;;5.32;;
61644;SDS011;47553;52.428;13.382;2022-11-27T17:31:19;15.65;;;5.65;;
61644;SDS011;47553;52.428;13.382;2022-11-27T17:33:22;17.27;;;6.07;;
61644;SDS011;47553;52.428;13.382;2022-11-27T17:35:24;14.23;;;6.10;;
61644;SDS011;47553;52.428;13.382;2022-11-27T17:37:25;11.18;;;5.30;;
61644;SDS011;47553;52.428;13.382;2022-11-27T17:39:27;14.90;;;5.88;;
61644;SDS011;47553;52.428;13.382;2022-11-27T17:41:29;13.25;;;6.10;;
61644;SDS011;47553;52.428;13.382;2022-11-27T17:43:30;13.18;;;5.80;;
61644;SDS011;47553;52.428;13.382;2022-11-27T17:47:35;12.75;;;5.57;;
61644;SDS011;47553;52.428;13.382;2022-11-27T17:49:36;12.85;;;5.47;;
61644;SDS011;47553;52.428;13.382;2022-11-27T17:51:38;16.02;;;5.85;;
61644;SDS011;47553;52.428;13.382;2022-11-27T17:53:39;14.15;;;5.30;;
61644;SDS011;47553;52.428;13.382;2022-11-27T17:55:41;16.10;;;5.93;;
61644;SDS011;47553;52.428;13.382;2022-11-27T17:57:42;16.05;;;6.07;;
61644;SDS011;47553;52.428;13.382;2022-11-27T17:59:44;12.80;;;5.80;;
61644;SDS011;47553;52.428;13.382;2022-11-27T18:01:46;12.27;;;5.50;;
61644;SDS011;47553;52.428;13.382;2022-11-27T18:03:49;13.18;;;6.15;;
61644;SDS011;47553;52.428;13.382;2022-11-27T18:05:51;12.65;;;5.03;;
61644;SDS011;47553;52.428;13.382;2022-11-27T18:07:53;13.35;;;6.15;;
61644;SDS011;47553;52.428;13.382;2022-11-27T18:09:55;13.85;;;5.07;;
61644;SDS011;47553;52.428;13.382;2022-11-27T18:11:56;14.52;;;5.85;;
61644;SDS011;47553;52.428;13.382;2022-11-27T18:16:03;12.82;;;5.88;;
61644;SDS011;47553;52.428;13.382;2022-11-27T18:18:06;12.88;;;5.78;;
61644;SDS011;47553;52.428;13.382;2022-11-27T18:20:09;14.65;;;5.35;;
61644;SDS011;47553;52.428;13.382;2022-11-27T18:22:11;14.45;;;6.05;;
61644;SDS011;47553;52.428;13.382;2022-11-27T18:24:13;17.95;;;5.90;;
61644;SDS011;47553;52.428;13.382;2022-11-27T18:26:24;15.82;;;5.70;;
61644;SDS011;47553;52.428;13.382;2022-11-27T18:28:46;11.20;;;5.65;;
61644;SDS011;47553;52.428;13.382;2022-11-27T18:30:48;10.93;;;4.97;;
61644;SDS011;47553;52.428;13.382;2022-11-27T18:32:49;14.75;;;5.80;;
61644;SDS011;47553;52.428;13.382;2022-11-27T18:34:51;13.52;;;5.35;;
61644;SDS011;47553;52.428;13.382;2022-11-27T18:36:54;14.00;;;5.60;;
61644;SDS011;47553;52.428;13.382;2022-11-27T18:38:56;15.20;;;5.88;;
61644;SDS011;47553;52.428;13.382;2022-11-27T18:41:03;13.98;;;6.30;;
61644;SDS011;47553;52.428;13.382;2022-11-27T18:43:06;16.95;;;5.63;;
61644;SDS011;47553;52.428;13.382;2022-11-27T18:45:08;13.07;;;5.75;;
61644;SDS011;47553;52.428;13.382;2022-11-27T18:47:29;12.73;;;5.50;;
61644;SDS011;47553;52.428;13.382;2022-11-27T18:49:31;13.73;;;6.05;;
61644;SDS011;47553;52.428;13.382;2022-11-27T18:51:33;14.25;;;5.80;;
61644;SDS011;47553;52.428;13.382;2022-11-27T18:53:35;16.73;;;6.13;;
61644;SDS011;47553;52.428;13.382;2022-11-27T18:55:37;12.45;;;5.10;;
61644;SDS011;47553;52.428;13.382;2022-11-27T18:57:39;12.80;;;5.50;;
61644;SDS011;47553;52.428;13.382;2022-11-27T18:59:41;11.55;;;5.30;;
61644;SDS011;47553;52.428;13.382;2022-11-27T19:01:43;13.48;;;5.82;;
61644;SDS011;47553;52.428;13.382;2022-11-27T19:05:47;15.52;;;5.55;;
61644;SDS011;47553;52.428;13.382;2022-11-27T19:07:49;13.57;;;5.30;;
61644;SDS011;47553;52.428;13.382;2022-11-27T19:09:52;13.63;;;5.88;;
61644;SDS011;47553;52.428;13.382;2022-11-27T19:11:53;13.13;;;5.18;;
61644;SDS011;47553;52.428;13.382;2022-11-27T19:13:55;13.77;;;5.63;;
61644;SDS011;47553;52.428;13.382;2022-11-27T19:15:57;13.80;;;5.22;;
61644;SDS011;47553;52.428;13.382;2022-11-27T19:17:59;14.02;;;5.60;;
61644;SDS011;47553;52.428;13.382;2022-11-27T19:20:01;15.75;;;5.63;;
61644;SDS011;47553;52.428;13.382;2022-11-27T19:22:02;16.13;;;5.28;;
61644;SDS011;47553;52.428;13.382;2022-11-27T19:24:04;13.30;;;5.25;;
61644;SDS011;47553;52.428;13.382;2022-11-27T19:26:08;14.32;;;5.63;;
61644;SDS011;47553;52.428;13.382;2022-11-27T19:28:10;12.45;;;4.72;;
61644;SDS011;47553;52.428;13.382;2022-11-27T19:30:13;13.25;;;5.38;;
61644;SDS011;47553;52.428;13.382;2022-11-27T19:32:14;12.55;;;5.15;;
61644;SDS011;47553;52.428;13.382;2022-11-27T19:34:16;11.93;;;5.30;;
61644;SDS011;47553;52.428;13.382;2022-11-27T19:36:19;12.65;;;5.45;;
61644;SDS011;47553;52.428;13.382;2022-11-27T19:38:21;11.93;;;5.22;;
61644;SDS011;47553;52.428;13.382;2022-11-27T19:40:23;11.13;;;4.75;;
61644;SDS011;47553;52.428;13.382;2022-11-27T19:42:26;12.25;;;5.00;;
61644;SDS011;47553;52.428;13.382;2022-11-27T19:44:27;13.02;;;4.63;;
61644;SDS011;47553;52.428;13.382;2022-11-27T19:46:30;14.55;;;4.68;;
61644;SDS011;47553;52.428;13.382;2022-11-27T19:48:32;16.35;;;5.03;;
61644;SDS011;47553;52.428;13.382;2022-11-27T19:50:34;15.40;;;5.57;;
61644;SDS011;47553;52.428;13.382;2022-11-27T19:54:37;12.95;;;5.00;;
61644;SDS011;47553;52.428;13.382;2022-11-27T19:56:40;12.85;;;5.43;;
61644;SDS011;47553;52.428;13.382;2022-11-27T19:58:43;14.50;;;5.65;;
61644;SDS011;47553;52.428;13.382;2022-11-27T20:00:45;12.57;;;5.32;;
61644;SDS011;47553;52.428;13.382;2022-11-27T20:02:47;16.75;;;6.18;;
61644;SDS011;47553;52.428;13.382;2022-11-27T20:04:50;13.85;;;5.70;;
61644;SDS011;47553;52.428;13.382;2022-11-27T20:06:52;13.82;;;5.13;;
61644;SDS011;47553;52.428;13.382;2022-11-27T20:08:57;13.38;;;5.32;;
61644;SDS011;47553;52.428;13.382;2022-11-27T20:11:00;12.27;;;5.78;;
61644;SDS011;47553;52.428;13.382;2022-11-27T20:13:03;14.10;;;5.47;;
61644;SDS011;47553;52.428;13.382;2022-11-27T20:15:07;17.73;;;5.88;;
61644;SDS011;47553;52.428;13.382;2022-11-27T20:17:10;13.05;;;5.60;;
61644;SDS011;47553;52.428;13.382;2022-11-27T20:19:12;14.05;;;5.55;;
61644;SDS011;47553;52.428;13.382;2022-11-27T20:21:15;14.52;;;5.35;;
61644;SDS011;47553;52.428;13.382;2022-11-27T20:23:18;14.80;;;5.82;;
61644;SDS011;47553;52.428;13.382;2022-11-27T20:25:19;13.90;;;5.75;;
61644;SDS011;47553;52.428;13.382;2022-11-27T20:27:21;13.63;;;5.50;;
61644;SDS011;47553;52.428;13.382;2022-11-27T20:29:22;13.13;;;5.53;;
61644;SDS011;47553;52.428;13.382;2022-11-27T20:31:26;15.02;;;5.80;;
61644;SDS011;47553;52.428;13.382;2022-11-27T20:33:29;15.65;;;5.80;;
61644;SDS011;47553;52.428;13.382;2022-11-27T20:35:31;14.65;;;5.57;;
61644;SDS011;47553;52.428;13.382;2022-11-27T20:39:35;19.02;;;5.50;;
61644;SDS011;47553;52.428;13.382;2022-11-27T20:41:36;15.45;;;5.72;;
61644;SDS011;47553;52.428;13.382;2022-11-27T20:43:39;13.95;;;5.32;;
61644;SDS011;47553;52.428;13.382;2022-11-27T20:45:42;15.75;;;6.45;;
61644;SDS011;47553;52.428;13.382;2022-11-27T20:47:45;17.27;;;6.28;;
61644;SDS011;47553;52.428;13.382;2022-11-27T20:49:46;18.05;;;7.05;;
61644;SDS011;47553;52.428;13.382;2022-11-27T20:51:48;14.05;;;5.22;;
61644;SDS011;47553;52.428;13.382;2022-11-27T20:53:50;19.83;;;6.20;;
61644;SDS011;47553;52.428;13.382;2022-11-27T20:55:51;16.55;;;6.38;;
61644;SDS011;47553;52.428;13.382;2022-11-27T20:57:53;16.13;;;6.00;;
61644;SDS011;47553;52.428;13.382;2022-11-27T20:59:55;14.57;;;5.82;;
61644;SDS011;47553;52.428;13.382;2022-11-27T21:01:56;14.60;;;5.95;;
61644;SDS011;47553;52.428;13.382;2022-11-27T21:04:00;17.00;;;6.15;;
61644;SDS011;47553;52.428;13.382;2022-11-27T21:06:03;15.77;;;6.32;;
61644;SDS011;47553;52.428;13.382;2022-11-27T21:10:07;16.02;;;5.95;;
61644;SDS011;47553;52.428;13.382;2022-11-27T21:12:10;22.42;;;7.40;;
61644;SDS011;47553;52.428;13.382;2022-11-27T21:14:12;23.33;;;7.50;;
61644;SDS011;47553;52.428;13.382;2022-11-27T21:16:15;16.15;;;6.30;;
61644;SDS011;47553;52.428;13.382;2022-11-27T21:20:19;18.38;;;6.30;;
61644;SDS011;47553;52.428;13.382;2022-11-27T21:22:20;15.90;;;6.53;;
61644;SDS011;47553;52.428;13.382;2022-11-27T21:24:22;17.65;;;6.70;;
61644;SDS011;47553;52.428;13.382;2022-11-27T21:26:25;14.23;;;5.68;;
61644;SDS011;47553;52.428;13.382;2022-11-27T21:28:27;20.23;;;7.05;;
61644;SDS011;47553;52.428;13.382;2022-11-27T21:30:30;21.58;;;7.28;;
61644;SDS011;47553;52.428;13.382;2022-11-27T21:32:31;17.55;;;6.60;;
61644;SDS011;47553;52.428;13.382;2022-11-27T21:34:33;19.75;;;6.40;;
61644;SDS011;47553;52.428;13.382;2022-11-27T21:38:37;16.15;;;6.25;;
61644;SDS011;47553;52.428;13.382;2022-11-27T21:40:39;15.77;;;5.80;;
61644;SDS011;47553;52.428;13.382;2022-11-27T21:42:41;22.83;;;6.63;;
61644;SDS011;47553;52.428;13.382;2022-11-27T21:44:45;15.15;;;7.05;;
61644;SDS011;47553;52.428;13.382;2022-11-27T21:46:47;16.15;;;6.65;;
61644;SDS011;47553;52.428;13.382;2022-11-27T21:48:50;19.58;;;6.53;;
61644;SDS011;47553;52.428;13.382;2022-11-27T21:50:58;18.55;;;6.40;;
61644;SDS011;47553;52.428;13.382;2022-11-27T21:53:02;18.17;;;7.30;;
61644;SDS011;47553;52.428;13.382;2022-11-27T21:55:04;18.38;;;6.75;;
61644;SDS011;47553;52.428;13.382;2022-11-27T21:57:12;18.88;;;6.32;;
61644;SDS011;47553;52.428;13.382;2022-11-27T21:59:13;17.85;;;6.93;;
61644;SDS011;47553;52.428;13.382;2022-11-27T22:01:15;14.77;;;6.05;;
61644;SDS011;47553;52.428;13.382;2022-11-27T22:03:19;16.35;;;6.63;;
61644;SDS011;47553;52.428;13.382;2022-11-27T22:05:20;18.40;;;7.13;;
61644;SDS011;47553;52.428;13.382;2022-11-27T22:07:22;19.38;;;7.28;;
61644;SDS011;47553;52.428;13.382;2022-11-27T22:09:25;17.83;;;6.95;;
61644;SDS011;47553;52.428;13.382;2022-11-27T22:11:27;21.20;;;7.38;;
61644;SDS011;47553;52.428;13.382;2022-11-27T22:13:29;17.15;;;6.15;;
61644;SDS011;47553;52.428;13.382;2022-11-27T22:15:34;16.20;;;6.30;;
61644;SDS011;47553;52.428;13.382;2022-11-27T22:17:36;20.27;;;7.10;;
61644;SDS011;47553;52.428;13.382;2022-11-27T22:19:38;14.50;;;6.22;;
61644;SDS011;47553;52.428;13.382;2022-11-27T22:21:40;18.70;;;6.40;;
61644;SDS011;47553;52.428;13.382;2022-11-27T22:23:42;17.80;;;6.85;;
61644;SDS011;47553;52.428;13.382;2022-11-27T22:25:45;18.38;;;7.03;;
61644;SDS011;47553;52.428;13.382;2022-11-27T22:27:47;18.75;;;5.88;;
61644;SDS011;47553;52.428;13.382;2022-11-27T22:29:49;16.20;;;6.20;;
61644;SDS011;47553;52.428;13.382;2022-11-27T22:31:51;18.90;;;6.45;;
61644;SDS011;47553;52.428;13.382;2022-11-27T22:33:53;17.83;;;6.85;;
61644;SDS011;47553;52.428;13.382;2022-11-27T22:35:54;23.42;;;7.15;;
61644;SDS011;47553;52.428;13.382;2022-11-27T22:37:56;18.05;;;6.43;;
61644;SDS011;47553;52.428;13.382;2022-11-27T22:39:57;18.45;;;6.90;;
61644;SDS011;47553;52.428;13.382;2022-11-27T22:42:00;23.45;;;6.78;;
61644;SDS011;47553;52.428;13.382;2022-11-27T22:44:03;17.67;;;5.88;;
61644;SDS011;47553;52.428;13.382;2022-11-27T22:46:05;15.32;;;5.85;;
61644;SDS011;47553;52.428;13.382;2022-11-27T22:48:08;19.83;;;6.90;;
61644;SDS011;47553;52.428;13.382;2022-11-27T22:50:10;19.52;;;6.72;;
61644;SDS011;47553;52.428;13.382;2022-11-27T22:52:11;19.52;;;6.65;;
61644;SDS011;47553;52.428;13.382;2022-11-27T22:54:13;15.90;;;6.22;;
61644;SDS011;47553;52.428;13.382;2022-11-27T22:56:15;18.35;;;7.18;;
61644;SDS011;47553;52.428;13.382;2022-11-27T22:58:19;16.23;;;6.57;;
61644;SDS011;47553;52.428;13.382;2022-11-27T23:00:20;17.33;;;6.30;;
61644;SDS011;47553;52.428;13.382;2022-11-27T23:02:22;15.68;;;6.32;;
61644;SDS011;47553;52.428;13.382;2022-11-27T23:04:24;18.67;;;6.72;;
61644;SDS011;47553;52.428;13.382;2022-11-27T23:06:26;16.45;;;6.50;;
61644;SDS011;47553;52.428;13.382;2022-11-27T23:08:28;17.90;;;6.53;;
61644;SDS011;47553;52.428;13.382;2022-11-27T23:10:29;18.85;;;6.88;;
61644;SDS011;47553;52.428;13.382;2022-11-27T23:12:31;17.95;;;6.68;;
61644;SDS011;47553;52.428;13.382;2022-11-27T23:14:33;19.67;;;6.47;;
61644;SDS011;47553;52.428;13.382;2022-11-27T23:16:35;15.73;;;6.72;;
61644;SDS011;47553;52.428;13.382;2022-11-27T23:18:37;17.90;;;6.40;;
61644;SDS011;47553;52.428;13.382;2022-11-27T23:20:40;15.07;;;6.40;;
61644;SDS011;47553;52.428;13.382;2022-11-27T23:22:41;17.20;;;6.95;;
61644;SDS011;47553;52.428;13.382;2022-11-27T23:24:43;15.93;;;6.72;;
61644;SDS011;47553;52.428;13.382;2022-11-27T23:28:47;18.05;;;6.10;;
61644;SDS011;47553;52.428;13.382;2022-11-27T23:30:51;16.85;;;6.20;;
61644;SDS011;47553;52.428;13.382;2022-11-27T23:33:12;19.10;;;6.70;;
61644;SDS011;47553;52.428;13.382;2022-11-27T23:35:14;18.40;;;6.45;;
61644;SDS011;47553;52.428;13.382;2022-11-27T23:37:16;16.58;;;6.00;;
61644;SDS011;47553;52.428;13.382;2022-11-27T23:39:17;18.48;;;6.97;;
61644;SDS011;47553;52.428;13.382;2022-11-27T23:41:19;17.02;;;6.32;;
61644;SDS011;47553;52.428;13.382;2022-11-27T23:43:22;18.23;;;6.00;;
61644;SDS011;47553;52.428;13.382;2022-11-27T23:45:24;15.73;;;5.88;;
61644;SDS011;47553;52.428;13.382;2022-11-27T23:49:29;15.30;;;6.13;;
61644;SDS011;47553;52.428;13.382;2022-11-27T23:51:31;16.65;;;6.63;;